KBTL/BTL METAR and TAF weather

Enter ICAO airport designator
Station Type Date Time Source
KBTL METAR 2020/01/20 12:53 UTC NOAA

KBTL 201253Z 04006KT 10SM OVC021 M09/M12 A3051 RMK AO2 SLP350 T10891117


Station Type Date Time Source
KBTL Decoded METAR 2020/01/20 12:53 UTC NOAA

W.K.KELLOGG REGIONAL AIRPORT, MI, United States (KBTL) 42-18N 085-15W 290M
Jan 20, 2020 - 07:53 AM EST / 2020.01.20 1253 UTC
Wind: from the NE (040 degrees) at 7 MPH (6 KT):0
Visibility: 10 mile(s):0
Sky conditions: overcast
Temperature: 16.0 F (-8.9 C)
Windchill: 6 F (-14 C):1
Dew Point: 10.9 F (-11.7 C)
Relative Humidity: 80%
Pressure (altimeter): 30.51 in. Hg (1033 hPa)
ob: KBTL 201253Z 04006KT 10SM OVC021 M09/M12 A3051 RMK AO2 SLP350 T10891117
cycle: 13

Station Type Date Time Source
KBTL TAF 2020/01/20 12:22 UTC NOAA

TAF KBTL 201120Z 2012/2112 32003KT P6SM BKN025
FM201700 36003KT P6SM SCT100

Example: see airport list